createdAt,value
2023-01-28T00:01:44.583Z,75.89
2023-01-28T00:04:12.254Z,75.79
2023-01-28T00:06:40.207Z,75.70
2023-01-28T00:09:08.347Z,75.82
2023-01-28T00:11:36.217Z,75.93
2023-01-28T00:14:05.775Z,75.78
2023-01-28T00:16:33.513Z,75.76
2023-01-28T00:19:01.210Z,75.16
2023-01-28T00:21:28.929Z,75.16
2023-01-28T00:23:58.120Z,75.32
2023-01-28T00:26:29.226Z,75.46
2023-01-28T00:28:56.974Z,75.02
2023-01-28T00:31:26.826Z,75.17
2023-01-28T00:33:56.220Z,74.74
2023-01-28T00:36:26.143Z,74.74
2023-01-28T00:38:58.950Z,74.75
2023-01-28T00:41:29.447Z,74.73
2023-01-28T00:43:57.540Z,74.59
2023-01-28T00:46:27.645Z,74.68
2023-01-28T00:48:55.683Z,74.73
2023-01-28T00:51:23.699Z,74.29
2023-01-28T00:53:51.922Z,74.55
2023-01-28T00:56:20.843Z,74.77
2023-01-28T00:58:49.393Z,74.59
2023-01-28T01:01:23.470Z,74.40
2023-01-28T01:03:58.679Z,74.40
2023-01-28T01:06:26.485Z,74.36
2023-01-28T01:08:54.189Z,74.24
2023-01-28T01:11:21.905Z,74.47
2023-01-28T01:13:58.279Z,74.56
2023-01-28T01:16:29.077Z,74.68
2023-01-28T01:18:57.539Z,74.47
2023-01-28T01:21:28.453Z,74.77
2023-01-28T01:23:56.181Z,74.90
2023-01-28T01:26:25.054Z,74.37
2023-01-28T01:28:53.505Z,74.48
2023-01-28T01:31:23.472Z,74.48
2023-01-28T01:33:53.037Z,74.78
2023-01-28T01:36:22.827Z,74.67
2023-01-28T01:38:55.628Z,74.41
2023-01-28T01:41:27.677Z,74.14
2023-01-28T01:44:04.059Z,74.26
2023-01-28T01:46:44.901Z,74.32
2023-01-28T01:49:27.863Z,74.57
2023-01-28T01:52:03.532Z,74.58
2023-01-28T01:54:33.432Z,74.61
2023-01-28T01:57:02.374Z,74.57
2023-01-28T01:59:33.365Z,74.54
2023-01-28T02:02:08.384Z,74.47
2023-01-28T02:04:42.471Z,74.41
2023-01-28T02:07:13.599Z,74.23
2023-01-28T02:09:42.695Z,74.49
2023-01-28T02:12:15.507Z,74.59
2023-01-28T02:14:53.663Z,74.44
2023-01-28T02:17:22.998Z,74.61
2023-01-28T02:20:07.957Z,74.76
2023-01-28T02:22:56.574Z,74.80
2023-01-28T02:25:50.141Z,74.91
2023-01-28T02:28:23.740Z,74.98
2023-01-28T02:30:54.488Z,74.98
2023-01-28T02:33:40.641Z,74.92
2023-01-28T02:36:23.907Z,75.19
2023-01-28T02:38:54.085Z,75.14
2023-01-28T02:41:32.621Z,75.05
2023-01-28T02:44:04.311Z,75.03
2023-01-28T02:46:50.498Z,75.04
2023-01-28T02:49:53.434Z,75.34
2023-01-28T02:52:43.647Z,75.28
2023-01-28T02:55:27.128Z,75.31
2023-01-28T02:58:04.783Z,75.48
2023-01-28T03:00:55.726Z,75.32
2023-01-28T03:03:31.133Z,75.38
2023-01-28T03:06:09.769Z,75.25
2023-01-28T03:09:03.977Z,75.26
2023-01-28T03:11:53.508Z,75.32
2023-01-28T03:14:40.836Z,75.08
2023-01-28T03:17:34.138Z,75.03
2023-01-28T03:20:20.412Z,75.39
2023-01-28T03:23:13.975Z,75.63
2023-01-28T03:26:04.013Z,75.29
2023-01-28T03:28:53.301Z,75.43
2023-01-28T03:31:42.123Z,75.49
2023-01-28T03:34:30.146Z,75.22
2023-01-28T03:36:58.212Z,75.15
2023-01-28T03:39:31.671Z,75.30
2023-01-28T03:42:09.987Z,75.20
2023-01-28T03:44:50.820Z,75.34
2023-01-28T03:47:20.095Z,75.29
2023-01-28T03:49:52.561Z,75.31
2023-01-28T03:52:22.711Z,75.24
2023-01-28T03:54:51.277Z,75.40
2023-01-28T03:57:21.140Z,75.60
2023-01-28T03:59:50.969Z,75.89
2023-01-28T04:02:19.795Z,75.86
2023-01-28T04:04:47.682Z,75.85
2023-01-28T04:07:16.548Z,75.92
2023-01-28T04:09:44.733Z,75.94
2023-01-28T04:12:13.136Z,76.13
2023-01-28T04:14:41.287Z,76.10
2023-01-28T04:17:11.511Z,76.37
2023-01-28T04:19:39.513Z,76.27
2023-01-28T04:22:08.678Z,76.41
2023-01-28T04:24:36.437Z,76.19
2023-01-28T04:27:04.191Z,76.33
2023-01-28T04:29:32.796Z,76.16
2023-01-28T04:32:00.502Z,76.27
2023-01-28T04:34:28.147Z,76.35
2023-01-28T04:36:55.858Z,76.42
2023-01-28T04:39:23.607Z,76.41
2023-01-28T04:41:51.278Z,76.23
2023-01-28T04:44:18.977Z,77.10
2023-01-28T04:46:46.699Z,76.43
2023-01-28T04:49:14.377Z,76.41
2023-01-28T04:51:42.080Z,76.75
2023-01-28T04:54:09.837Z,76.75
2023-01-28T04:56:37.545Z,76.80
2023-01-28T04:59:05.214Z,76.58
2023-01-28T05:01:32.906Z,76.63
2023-01-28T05:04:00.876Z,76.95
2023-01-28T05:06:28.603Z,76.77
2023-01-28T05:08:56.280Z,76.85
2023-01-28T05:11:23.953Z,76.82
2023-01-28T05:13:51.898Z,76.81
2023-01-28T05:16:19.671Z,76.94
2023-01-28T05:18:49.172Z,76.93
2023-01-28T05:21:16.949Z,76.66
2023-01-28T05:23:44.990Z,76.73
2023-01-28T05:26:12.622Z,76.70
2023-01-28T05:28:40.230Z,76.76
2023-01-28T05:31:08.707Z,76.64
2023-01-28T05:33:36.374Z,76.81
2023-01-28T05:36:04.245Z,76.78
2023-01-28T05:38:31.897Z,77.04
2023-01-28T05:40:59.589Z,76.79
2023-01-28T05:43:27.208Z,76.73
2023-01-28T05:45:54.924Z,76.85
2023-01-28T05:48:22.719Z,76.71
2023-01-28T05:50:51.212Z,76.81
2023-01-28T05:53:19.077Z,76.94
2023-01-28T05:55:50.916Z,76.91
2023-01-28T05:58:18.969Z,77.11
2023-01-28T06:00:46.756Z,76.82
2023-01-28T06:03:14.434Z,76.67
2023-01-28T06:05:42.129Z,76.75
2023-01-28T06:08:09.989Z,76.99
2023-01-28T06:10:37.731Z,76.88
2023-01-28T06:13:05.432Z,76.95
2023-01-28T06:15:33.726Z,76.89
2023-01-28T06:18:01.486Z,77.36
2023-01-28T06:20:29.303Z,76.72
2023-01-28T06:22:57.045Z,76.86
2023-01-28T06:25:24.722Z,76.80
2023-01-28T06:27:52.490Z,76.79
2023-01-28T06:30:20.735Z,76.81
2023-01-28T06:32:48.459Z,76.58
2023-01-28T06:35:16.300Z,76.48
2023-01-28T06:37:44.330Z,76.50
2023-01-28T06:40:13.113Z,76.65
2023-01-28T06:42:41.182Z,76.52
2023-01-28T06:45:09.406Z,76.35
2023-01-28T06:47:37.153Z,76.37
2023-01-28T06:50:04.981Z,76.38
2023-01-28T06:52:32.734Z,76.24
2023-01-28T06:55:00.444Z,76.28
2023-01-28T06:57:28.083Z,76.06
2023-01-28T06:59:55.788Z,76.21
2023-01-28T07:02:24.523Z,76.18
2023-01-28T07:04:53.687Z,76.38
2023-01-28T07:07:21.419Z,76.09
2023-01-28T07:09:49.056Z,76.18
2023-01-28T07:12:16.820Z,76.03
2023-01-28T07:14:44.422Z,75.97
2023-01-28T07:17:12.332Z,75.82
2023-01-28T07:19:40.055Z,76.02
2023-01-28T07:22:07.835Z,75.79
2023-01-28T07:24:35.987Z,75.71
2023-01-28T07:27:05.707Z,75.51
2023-01-28T07:29:33.478Z,75.65
2023-01-28T07:32:01.197Z,75.78
2023-01-28T07:34:28.994Z,75.77
2023-01-28T07:36:57.549Z,75.30
2023-01-28T07:39:25.426Z,75.54
2023-01-28T07:41:53.715Z,75.48
2023-01-28T07:44:21.423Z,75.01
2023-01-28T07:46:49.110Z,75.04
2023-01-28T07:49:16.739Z,74.67
2023-01-28T07:51:44.410Z,74.05
2023-01-28T07:54:12.097Z,74.26
2023-01-28T07:56:39.982Z,73.94
2023-01-28T07:59:07.638Z,74.40
2023-01-28T08:01:35.341Z,74.20
2023-01-28T08:04:03.096Z,73.61
2023-01-28T08:06:30.982Z,73.71
2023-01-28T08:08:58.686Z,73.63
2023-01-28T08:11:26.347Z,73.33
2023-01-28T08:13:53.980Z,73.44
2023-01-28T08:16:21.652Z,73.11
2023-01-28T08:18:49.296Z,73.18
2023-01-28T08:21:17.060Z,73.40
2023-01-28T08:23:44.770Z,73.18
2023-01-28T08:26:12.540Z,72.50
2023-01-28T08:28:40.373Z,72.74
2023-01-28T08:31:08.060Z,72.94
2023-01-28T08:33:35.810Z,72.53
2023-01-28T08:36:05.359Z,72.46
2023-01-28T08:38:33.403Z,72.45
2023-01-28T08:41:01.227Z,72.40
2023-01-28T08:43:28.871Z,71.44
2023-01-28T08:45:56.537Z,71.61
2023-01-28T08:48:24.248Z,71.64
2023-01-28T08:50:52.055Z,71.78
2023-01-28T08:53:21.628Z,71.71
2023-01-28T08:55:49.507Z,71.75
2023-01-28T08:58:19.359Z,71.55
2023-01-28T09:00:48.503Z,71.00
2023-01-28T09:03:16.445Z,71.11
2023-01-28T09:05:44.692Z,71.26
2023-01-28T09:08:15.041Z,71.10
2023-01-28T09:10:43.452Z,70.60
2023-01-28T09:13:13.920Z,70.87
2023-01-28T09:15:42.480Z,70.95
2023-01-28T09:18:10.394Z,70.74
2023-01-28T09:20:38.844Z,70.61
2023-01-28T09:23:07.136Z,70.47
2023-01-28T09:25:37.185Z,70.39
2023-01-28T09:28:05.690Z,70.27
2023-01-28T09:30:35.976Z,69.79
2023-01-28T09:33:04.776Z,68.49
2023-01-28T09:35:32.556Z,67.94
2023-01-28T09:38:01.268Z,68.74
2023-01-28T09:40:59.078Z,68.70
2023-01-28T09:44:02.848Z,68.59
2023-01-28T09:46:36.975Z,68.43
2023-01-28T09:49:18.862Z,68.32
2023-01-28T09:51:54.760Z,67.95
2023-01-28T09:54:41.441Z,67.43
2023-01-28T09:57:18.229Z,67.08
2023-01-28T09:59:45.934Z,66.60
2023-01-28T10:02:27.158Z,66.64
2023-01-28T10:05:27.064Z,66.49
2023-01-28T10:08:00.418Z,66.56
2023-01-28T10:10:34.575Z,65.14
2023-01-28T10:13:11.617Z,66.42
2023-01-28T10:16:00.633Z,65.18
2023-01-28T10:18:37.995Z,64.67
2023-01-28T10:21:14.437Z,64.38
2023-01-28T10:24:02.859Z,63.94
2023-01-28T10:26:36.839Z,64.10
2023-01-28T10:29:23.154Z,63.86
2023-01-28T10:32:00.827Z,63.41
2023-01-28T10:34:28.605Z,63.32
2023-01-28T10:36:58.844Z,63.29
2023-01-28T10:39:27.927Z,63.57
2023-01-28T10:41:58.501Z,62.99
2023-01-28T10:44:48.723Z,63.26
2023-01-28T10:47:30.920Z,63.13
2023-01-28T10:50:03.619Z,63.50
2023-01-28T10:52:31.294Z,63.76
2023-01-28T10:55:07.613Z,63.83
2023-01-28T10:57:35.992Z,63.32
2023-01-28T11:00:26.930Z,63.48
2023-01-28T11:02:56.111Z,63.42
2023-01-28T11:05:29.746Z,63.84
2023-01-28T11:08:14.446Z,63.53
2023-01-28T11:10:43.242Z,63.74
2023-01-28T11:13:29.134Z,63.40
2023-01-28T11:16:04.677Z,63.57
2023-01-28T11:18:36.349Z,64.22
2023-01-28T11:21:07.593Z,64.22
2023-01-28T11:23:40.482Z,64.53
2023-01-28T11:26:20.704Z,64.84
2023-01-28T11:28:48.758Z,65.08
2023-01-28T11:31:18.441Z,65.26
2023-01-28T11:34:00.772Z,65.63
2023-01-28T11:36:30.981Z,65.73
2023-01-28T11:39:03.542Z,65.91
2023-01-28T11:41:36.752Z,66.12
2023-01-28T11:44:27.343Z,66.38
2023-01-28T11:47:04.195Z,66.45
2023-01-28T11:49:31.844Z,66.44
2023-01-28T11:52:18.802Z,66.64
2023-01-28T11:55:08.490Z,66.96
2023-01-28T11:57:53.476Z,67.05
2023-01-28T12:00:31.204Z,66.91
2023-01-28T12:03:26.022Z,66.81
2023-01-28T12:05:58.744Z,67.17
2023-01-28T12:08:35.710Z,66.93
2023-01-28T12:11:06.407Z,67.01
2023-01-28T12:13:45.591Z,66.99
2023-01-28T12:16:19.476Z,66.87
2023-01-28T12:19:09.070Z,66.66
2023-01-28T12:21:48.675Z,67.02
2023-01-28T12:24:27.602Z,67.13
2023-01-28T12:27:27.161Z,67.05
2023-01-28T12:30:22.253Z,67.18
2023-01-28T12:33:17.745Z,67.16
2023-01-28T12:35:54.571Z,67.24
2023-01-28T12:38:36.780Z,67.33
2023-01-28T12:41:19.608Z,67.37
2023-01-28T12:43:52.891Z,67.34
2023-01-28T12:46:30.702Z,67.37
2023-01-28T12:49:26.496Z,67.47
2023-01-28T12:52:12.010Z,67.16
2023-01-28T12:54:54.064Z,67.38
2023-01-28T12:57:27.555Z,67.47
2023-01-28T13:00:33.221Z,67.44
2023-01-28T13:03:24.415Z,67.53
2023-01-28T13:05:56.802Z,67.66
2023-01-28T13:08:31.249Z,67.45
2023-01-28T13:11:01.065Z,67.30
2023-01-28T13:13:33.528Z,67.56
2023-01-28T13:16:02.776Z,67.17
2023-01-28T13:18:49.111Z,67.40
2023-01-28T13:21:34.681Z,67.73
2023-01-28T13:24:10.675Z,67.75
2023-01-28T13:26:54.304Z,67.50
2023-01-28T13:29:35.054Z,67.65
2023-01-28T13:32:24.492Z,67.23
2023-01-28T13:35:07.175Z,67.16
2023-01-28T13:37:36.702Z,66.54
2023-01-28T13:40:24.856Z,66.87
2023-01-28T13:43:06.277Z,67.01
2023-01-28T13:45:35.187Z,66.76
2023-01-28T13:48:41.505Z,66.54
2023-01-28T13:51:29.969Z,66.60
2023-01-28T13:54:08.485Z,66.86
2023-01-28T13:56:50.592Z,66.81
2023-01-28T13:59:33.352Z,67.15
2023-01-28T14:02:06.835Z,66.91
2023-01-28T14:04:48.141Z,66.97
2023-01-28T14:07:46.856Z,66.65
2023-01-28T14:10:45.363Z,66.82
2023-01-28T14:13:18.715Z,66.57
2023-01-28T14:16:21.828Z,66.81
2023-01-28T14:18:51.147Z,66.72
2023-01-28T14:21:22.275Z,66.78
2023-01-28T14:23:56.126Z,66.67
2023-01-28T14:26:49.592Z,66.71
2023-01-28T14:29:37.097Z,66.70
2023-01-28T14:32:23.754Z,66.58
2023-01-28T14:34:51.747Z,66.62
2023-01-28T14:37:27.452Z,66.64
2023-01-28T14:39:59.860Z,66.73
2023-01-28T14:42:33.864Z,66.77
2023-01-28T14:45:19.973Z,66.63
2023-01-28T14:47:55.957Z,66.76
2023-01-28T14:50:41.210Z,66.85
2023-01-28T14:53:20.795Z,66.82
2023-01-28T14:56:04.077Z,66.87
2023-01-28T14:58:37.465Z,66.91
2023-01-28T15:01:05.307Z,66.79
2023-01-28T15:03:33.722Z,66.82
2023-01-28T15:06:13.890Z,66.92
2023-01-28T15:08:41.784Z,66.87
2023-01-28T15:11:29.642Z,66.89
2023-01-28T15:14:00.373Z,66.77
2023-01-28T15:16:31.399Z,66.87
2023-01-28T15:19:02.536Z,66.72
2023-01-28T15:21:31.699Z,66.82
2023-01-28T15:24:02.022Z,66.80
2023-01-28T15:26:35.396Z,66.92
2023-01-28T15:29:03.117Z,66.75
2023-01-28T15:31:39.974Z,67.08
2023-01-28T15:34:16.616Z,66.85
2023-01-28T15:36:44.819Z,66.89
2023-01-28T15:39:17.702Z,66.62
2023-01-28T15:41:50.722Z,66.82
2023-01-28T15:44:30.171Z,66.62
2023-01-28T15:47:00.347Z,66.64
2023-01-28T15:49:37.962Z,66.83
2023-01-28T15:52:05.918Z,66.65
2023-01-28T15:54:37.923Z,66.43
2023-01-28T15:57:28.494Z,66.64
2023-01-28T16:00:08.142Z,66.63
2023-01-28T16:02:51.197Z,66.61
2023-01-28T16:05:54.817Z,66.82
2023-01-28T16:08:40.546Z,66.73
2023-01-28T16:11:10.732Z,66.77
2023-01-28T16:13:44.200Z,66.88
2023-01-28T16:16:12.869Z,66.96
2023-01-28T16:18:52.844Z,66.98
2023-01-28T16:21:35.713Z,67.02
2023-01-28T16:24:21.365Z,67.00
2023-01-28T16:26:58.510Z,66.71
2023-01-28T16:29:30.826Z,66.75
2023-01-28T16:32:00.917Z,66.91
2023-01-28T16:34:28.791Z,66.94
2023-01-28T16:37:00.514Z,66.87
2023-01-28T16:39:28.482Z,66.92
2023-01-28T16:41:58.250Z,66.96
2023-01-28T16:44:25.967Z,66.99
2023-01-28T16:46:53.808Z,66.92
2023-01-28T16:49:21.602Z,66.76
2023-01-28T16:51:49.383Z,66.62
2023-01-28T16:54:18.480Z,66.73
2023-01-28T16:56:47.076Z,66.69
2023-01-28T16:59:16.921Z,66.52
2023-01-28T17:01:45.483Z,66.59
2023-01-28T17:04:13.701Z,66.64
2023-01-28T17:06:45.760Z,66.76
2023-01-28T17:09:14.780Z,66.75
2023-01-28T17:11:42.768Z,66.73
2023-01-28T17:14:11.795Z,66.76
2023-01-28T17:16:39.736Z,66.76
2023-01-28T17:19:07.817Z,66.89
2023-01-28T17:21:35.610Z,66.84
2023-01-28T17:24:04.121Z,66.98
2023-01-28T17:26:33.118Z,66.91
2023-01-28T17:29:00.762Z,67.02
2023-01-28T17:31:28.886Z,67.17
2023-01-28T17:33:59.187Z,67.12
2023-01-28T17:36:28.120Z,67.21
2023-01-28T17:38:56.395Z,67.30
2023-01-28T17:41:24.230Z,67.39
2023-01-28T17:43:53.560Z,67.60
2023-01-28T17:46:22.955Z,67.96
2023-01-28T17:48:51.084Z,68.13
2023-01-28T17:51:19.977Z,68.06
2023-01-28T17:53:52.523Z,68.15
2023-01-28T17:56:26.992Z,68.29
2023-01-28T17:58:56.745Z,68.44
2023-01-28T18:01:26.291Z,68.61
2023-01-28T18:03:54.244Z,68.64
2023-01-28T18:06:22.311Z,68.94
2023-01-28T18:08:50.193Z,69.09
2023-01-28T18:11:19.841Z,69.17
2023-01-28T18:13:47.743Z,69.17
2023-01-28T18:16:19.303Z,69.12
2023-01-28T18:18:48.122Z,69.75
2023-01-28T18:21:46.552Z,69.60
2023-01-28T18:24:19.360Z,69.68
2023-01-28T18:26:47.131Z,69.48
2023-01-28T18:29:17.891Z,69.66
2023-01-28T18:31:45.761Z,69.79
2023-01-28T18:34:13.582Z,70.03
2023-01-28T18:36:41.485Z,70.29
2023-01-28T18:39:13.726Z,70.32
2023-01-28T18:41:42.107Z,70.17
2023-01-28T18:44:11.298Z,70.22
2023-01-28T18:46:39.094Z,70.35
2023-01-28T18:49:06.971Z,70.51
2023-01-28T18:51:34.715Z,70.41
2023-01-28T18:54:07.380Z,70.52
2023-01-28T18:56:36.625Z,70.34
2023-01-28T18:59:07.461Z,70.41
2023-01-28T19:01:35.840Z,70.79
2023-01-28T19:04:04.103Z,70.63
2023-01-28T19:06:33.321Z,70.69
2023-01-28T19:09:04.681Z,70.66
2023-01-28T19:11:32.425Z,70.59
2023-01-28T19:14:00.302Z,70.72
2023-01-28T19:16:28.580Z,70.67
2023-01-28T19:18:58.983Z,70.96
2023-01-28T19:21:28.105Z,71.15
2023-01-28T19:24:10.796Z,71.14
2023-01-28T19:26:40.548Z,71.29
2023-01-28T19:29:15.416Z,71.28
2023-01-28T19:31:44.231Z,71.70
2023-01-28T19:34:12.441Z,71.57
2023-01-28T19:36:40.346Z,71.61
2023-01-28T19:39:10.428Z,71.58
2023-01-28T19:41:38.404Z,71.72
2023-01-28T19:44:07.531Z,71.80
2023-01-28T19:46:37.253Z,71.79
2023-01-28T19:49:07.470Z,71.75
2023-01-28T19:51:35.525Z,71.78
2023-01-28T19:54:03.326Z,72.03
2023-01-28T19:56:31.744Z,72.12
2023-01-28T19:58:59.404Z,72.18
2023-01-28T20:01:30.372Z,72.83
2023-01-28T20:04:00.438Z,72.62
2023-01-28T20:06:30.774Z,72.40
2023-01-28T20:09:01.874Z,72.86
2023-01-28T20:11:30.034Z,72.84
2023-01-28T20:13:57.880Z,72.84
2023-01-28T20:16:30.290Z,72.88
2023-01-28T20:19:00.838Z,73.04
2023-01-28T20:21:30.685Z,73.03
2023-01-28T20:24:00.441Z,73.27
2023-01-28T20:26:34.404Z,73.34
2023-01-28T20:29:05.157Z,74.27
2023-01-28T20:31:34.527Z,73.71
2023-01-28T20:34:02.640Z,74.50
2023-01-28T20:36:30.461Z,74.55
2023-01-28T20:38:58.175Z,73.89
2023-01-28T20:41:27.362Z,74.25
2023-01-28T20:43:56.204Z,74.26
2023-01-28T20:46:26.662Z,74.36
2023-01-28T20:48:56.300Z,74.29
2023-01-28T20:51:27.119Z,74.46
2023-01-28T20:53:55.018Z,74.24
2023-01-28T20:56:25.315Z,74.12
2023-01-28T20:58:58.451Z,74.16
2023-01-28T21:01:29.456Z,74.02
2023-01-28T21:03:57.342Z,73.85
2023-01-28T21:06:25.806Z,74.04
2023-01-28T21:08:58.322Z,73.84
2023-01-28T21:11:27.732Z,73.95
2023-01-28T21:13:55.606Z,73.74
2023-01-28T21:16:23.863Z,73.77
2023-01-28T21:18:51.828Z,73.94
2023-01-28T21:21:28.594Z,73.76
2023-01-28T21:23:58.882Z,73.43
2023-01-28T21:26:27.059Z,73.31
2023-01-28T21:28:55.093Z,73.30
2023-01-28T21:31:26.590Z,73.24
2023-01-28T21:33:56.569Z,72.73
2023-01-28T21:36:25.871Z,72.93
2023-01-28T21:38:54.957Z,72.49
2023-01-28T21:41:23.115Z,72.08
2023-01-28T21:43:54.523Z,72.17
2023-01-28T21:46:23.841Z,72.11
2023-01-28T21:48:55.962Z,72.04
2023-01-28T21:51:59.456Z,71.96
2023-01-28T21:54:27.316Z,72.10
2023-01-28T21:56:56.210Z,71.98
2023-01-28T21:59:29.854Z,71.96
2023-01-28T22:02:02.112Z,72.12
2023-01-28T22:04:35.425Z,72.21
2023-01-28T22:07:04.589Z,72.42
2023-01-28T22:09:34.530Z,72.52
2023-01-28T22:12:09.956Z,72.71
2023-01-28T22:14:39.807Z,72.66
2023-01-28T22:17:10.143Z,72.66
2023-01-28T22:19:38.476Z,72.96
2023-01-28T22:22:07.324Z,72.92
2023-01-28T22:24:35.141Z,73.27
2023-01-28T22:27:02.888Z,73.21
2023-01-28T22:29:30.625Z,73.36
2023-01-28T22:31:58.348Z,73.45
2023-01-28T22:34:26.240Z,73.35
2023-01-28T22:36:54.128Z,73.58
2023-01-28T22:39:21.992Z,73.73
2023-01-28T22:41:49.800Z,73.69
2023-01-28T22:44:17.696Z,73.83
2023-01-28T22:46:45.446Z,73.72
2023-01-28T22:49:13.514Z,73.83
2023-01-28T22:51:41.228Z,73.87
2023-01-28T22:54:10.244Z,74.02
2023-01-28T22:56:37.950Z,73.99
2023-01-28T22:59:05.835Z,74.13
2023-01-28T23:01:34.012Z,74.23
2023-01-28T23:04:01.831Z,74.28
2023-01-28T23:06:29.704Z,74.44
2023-01-28T23:08:57.502Z,74.22
2023-01-28T23:11:28.898Z,74.68
2023-01-28T23:14:20.960Z,74.80
2023-01-28T23:17:08.651Z,74.64
2023-01-28T23:19:55.401Z,74.92
2023-01-28T23:22:46.444Z,74.88
2023-01-28T23:25:14.903Z,74.69
2023-01-28T23:27:42.941Z,74.74
2023-01-28T23:30:11.732Z,74.69
2023-01-28T23:32:49.485Z,74.67
2023-01-28T23:35:20.032Z,74.79
2023-01-28T23:37:48.412Z,74.80
2023-01-28T23:40:17.066Z,74.84
2023-01-28T23:42:50.555Z,74.94
2023-01-28T23:45:19.148Z,75.06
2023-01-28T23:47:46.981Z,74.97
2023-01-28T23:50:15.213Z,75.01
2023-01-28T23:52:43.207Z,74.91
2023-01-28T23:55:11.072Z,75.14
2023-01-28T23:57:38.862Z,75.21
